Time;durP1;ratioP1;P1;durP2;ratioP2;P2;SDS_P1;SDS_P2;PMS_P1;PMS_P2;Temp;Humidity;BMP_temperature;BMP_pressure;BME280_temperature;BME280_humidity;BME280_pressure;Samples;Min_cycle;Max_cycle;Signal;HPM_P1;HPM_P2
2021/11/02 00:01:30;;;;;;;7.13;1.58;;;;;;;12.13;59.83;98244.31;6025223;23;20101;-80
2021/11/02 00:03:57;;;;;;;4.03;1.30;;;;;;;12.13;59.64;98236.38;6045625;23;20037;-80
2021/11/02 00:06:24;;;;;;;5.63;1.30;;;;;;;12.12;59.57;98235.53;6045128;23;20101;-80
2021/11/02 00:08:57;;;;;;;6.10;1.88;;;;;;;12.09;59.25;98232.34;6070116;23;20065;-80
2021/11/02 00:11:25;;;;;;;5.07;1.60;;;;;;;12.10;59.52;98234.88;6045519;23;20050;-80
2021/11/02 00:13:55;;;;;;;4.20;1.63;;;;;;;12.08;59.43;98233.34;6045383;23;20031;-79
2021/11/02 00:16:23;;;;;;;3.17;1.70;;;;;;;12.06;59.52;98235.25;6045030;23;20033;-79
2021/11/02 00:18:59;;;;;;;5.68;1.38;;;;;;;12.02;59.45;98239.94;6045248;23;20022;-79
2021/11/02 00:21:33;;;;;;;3.72;1.40;;;;;;;11.97;59.34;98240.34;6045091;23;20109;-79
2021/11/02 00:26:46;;;;;;;4.13;1.45;;;;;;;11.87;59.41;98234.22;6070152;23;20106;-79
2021/11/02 00:29:12;;;;;;;5.47;1.30;;;;;;;11.80;59.52;98233.91;6044762;23;20110;-80
2021/11/02 00:31:49;;;;;;;3.95;1.25;;;;;;;11.72;59.22;98241.63;6045422;23;20407;-79
2021/11/02 00:34:16;;;;;;;4.00;1.38;;;;;;;11.70;59.76;98238.31;6045385;23;20069;-80
2021/11/02 00:36:43;;;;;;;2.83;1.08;;;;;;;11.65;59.91;98235.22;6045456;23;20109;-80
2021/11/02 00:39:10;;;;;;;4.88;1.25;;;;;;;11.60;59.99;98236.44;6045051;23;20102;-80
2021/11/02 00:41:37;;;;;;;6.90;1.50;;;;;;;11.58;60.05;98230.50;6045814;23;20345;-80
2021/11/02 00:44:06;;;;;;;4.68;1.30;;;;;;;11.54;60.21;98234.34;6044891;23;20109;-79
2021/11/02 00:46:44;;;;;;;2.97;1.40;;;;;;;11.47;59.94;98226.16;6044833;23;20027;-79
2021/11/02 00:49:17;;;;;;;5.88;1.45;;;;;;;11.48;60.29;98219.09;6044931;23;20401;-79
2021/11/02 00:51:48;;;;;;;5.82;1.63;;;;;;;11.44;60.12;98220.31;6044730;23;20019;-80
2021/11/02 00:54:26;;;;;;;4.82;1.40;;;;;;;11.38;60.19;98218.19;6046732;23;20023;-79
2021/11/02 00:56:53;;;;;;;6.30;1.83;;;;;;;11.38;60.38;98224.28;6062776;23;20109;-80
2021/11/02 00:59:19;;;;;;;4.25;1.75;;;;;;;11.36;60.37;98220.13;6068211;23;20101;-79
2021/11/02 01:01:48;;;;;;;4.10;1.80;;;;;;;11.31;60.65;98220.50;6068193;23;20105;-80
2021/11/02 01:04:15;;;;;;;8.00;1.50;;;;;;;11.28;60.73;98213.69;6068445;23;20037;-80
2021/11/02 01:06:42;;;;;;;3.40;1.20;;;;;;;11.27;60.95;98217.31;6068462;23;20027;-80
2021/11/02 01:09:18;;;;;;;5.68;1.70;;;;;;;11.22;60.84;98211.59;6068240;23;20110;-80
2021/11/02 01:11:45;;;;;;;5.82;1.23;;;;;;;11.24;61.14;98211.44;6068529;23;20089;-79
2021/11/02 01:14:16;;;;;;;2.70;1.20;;;;;;;11.21;61.29;98212.53;6068534;23;20405;-79
2021/11/02 01:16:42;;;;;;;3.03;1.20;;;;;;;11.21;61.23;98212.53;6069620;23;20109;-80
2021/11/02 01:19:10;;;;;;;4.60;1.33;;;;;;;11.21;61.38;98207.28;6068162;23;20023;-79
2021/11/02 01:21:38;;;;;;;6.80;1.70;;;;;;;11.20;61.43;98202.97;6068450;23;20049;-77
2021/11/02 01:24:09;;;;;;;4.00;1.50;;;;;;;11.21;61.58;98210.75;6068838;23;20034;-78
2021/11/02 01:26:36;;;;;;;8.05;1.58;;;;;;;11.21;61.62;98207.28;6067895;23;20395;-77
2021/11/02 01:29:05;;;;;;;5.80;1.40;;;;;;;11.21;61.68;98212.53;6067415;23;20033;-81
2021/11/02 01:31:35;;;;;;;3.17;0.90;;;;;;;11.24;61.70;98204.38;6045530;23;20410;-79
2021/11/02 01:34:28;;;;;;;8.13;1.80;;;;;;;11.22;61.66;98208.97;6068597;23;20109;-79
2021/11/02 01:36:55;;;;;;;3.53;1.33;;;;;;;11.27;61.89;98204.13;6067978;23;20025;-79
2021/11/02 01:39:23;;;;;;;6.40;1.58;;;;;;;11.28;61.92;98205.81;6068559;23;20394;-79
2021/11/02 01:42:03;;;;;;;3.03;0.93;;;;;;;11.24;61.76;98199.13;6067987;23;20061;-79
2021/11/02 01:44:30;;;;;;;6.05;1.38;;;;;;;11.29;61.79;98204.00;6068296;23;20102;-79
2021/11/02 01:46:57;;;;;;;6.57;1.42;;;;;;;11.29;61.78;98199.56;6068112;23;20031;-79
2021/11/02 01:49:35;;;;;;;3.25;1.20;;;;;;;11.26;61.65;98197.22;6068303;23;20023;-79
2021/11/02 01:52:03;;;;;;;4.80;1.73;;;;;;;11.29;61.81;98198.75;6067866;23;20097;-80
2021/11/02 01:54:31;;;;;;;4.38;1.40;;;;;;;11.28;61.83;98199.69;6068305;23;20517;-80
2021/11/02 01:57:05;;;;;;;4.25;1.45;;;;;;;11.25;61.78;98197.34;6067731;23;20033;-80
2021/11/02 01:59:34;;;;;;;7.38;1.88;;;;;;;11.26;61.84;98191.94;6069264;23;20184;-79
2021/11/02 02:02:21;;;;;;;4.47;1.60;;;;;;;11.23;61.72;98194.81;6067795;23;20071;-79
2021/11/02 02:05:08;;;;;;;4.30;1.60;;;;;;;11.21;61.78;98196.75;6067936;23;20109;-79
2021/11/02 02:08:01;;;;;;;4.43;1.40;;;;;;;11.21;61.84;98200.22;6067869;23;20037;-79
2021/11/02 02:10:46;;;;;;;4.03;1.20;;;;;;;11.18;61.92;98197.03;6067584;23;20093;-79
2021/11/02 02:13:38;;;;;;;5.85;1.30;;;;;;;11.17;61.88;98197.97;6067597;23;20029;-82
2021/11/02 02:16:15;;;;;;;4.45;1.48;;;;;;;11.17;62.07;98195.34;6067438;23;20058;-79
2021/11/02 02:19:18;;;;;;;3.90;1.50;;;;;;;11.15;62.15;98197.28;5986814;23;20103;-79
2021/11/02 02:21:48;;;;;;;4.40;1.35;;;;;;;11.15;62.21;98190.22;5986355;23;20103;-79
2021/11/02 02:24:42;;;;;;;3.45;1.58;;;;;;;11.11;62.28;98188.81;5986358;23;20042;-79
2021/11/02 02:27:30;;;;;;;4.50;1.58;;;;;;;11.11;62.35;98198.50;5986286;23;20055;-79
2021/11/02 02:30:02;;;;;;;3.05;1.63;;;;;;;11.12;62.37;98187.00;5986396;23;20396;-79
2021/11/02 02:32:31;;;;;;;4.88;1.95;;;;;;;11.12;62.55;98187.00;5985906;23;20046;-80
2021/11/02 02:35:01;;;;;;;6.43;2.47;;;;;;;11.10;62.55;98186.31;5985806;23;20070;-80
2021/11/02 02:37:30;;;;;;;5.53;1.80;;;;;;;11.11;62.66;98191.44;6045447;23;20115;-80
2021/11/02 02:39:59;;;;;;;5.22;1.75;;;;;;;11.10;62.62;98184.47;6066870;23;20105;-80
2021/11/02 02:42:27;;;;;;;3.55;1.75;;;;;;;11.10;62.71;98183.66;6067278;23;20342;-78
2021/11/02 02:44:57;;;;;;;3.42;1.80;;;;;;;11.10;62.73;98183.66;6066907;23;20031;-78
2021/11/02 02:47:28;;;;;;;3.20;1.53;;;;;;;11.11;62.52;98185.34;6067150;23;20026;-79
2021/11/02 02:49:57;;;;;;;6.00;1.73;;;;;;;11.11;62.76;98180.91;6067237;23;20062;-79
2021/11/02 02:52:29;;;;;;;6.75;2.20;;;;;;;11.10;62.69;98181.03;6067662;23;20101;-79
2021/11/02 02:54:58;;;;;;;6.15;1.75;;;;;;;11.12;62.80;98176.47;6067687;23;20403;-83
2021/11/02 02:57:28;;;;;;;3.42;1.60;;;;;;;11.10;62.64;98176.59;6067422;23;20102;-79
2021/11/02 03:00:00;;;;;;;7.13;2.22;;;;;;;11.07;62.54;98175.03;6067300;23;20058;-82
2021/11/02 03:02:36;;;;;;;4.90;1.75;;;;;;;11.04;62.63;98167.44;6068120;23;20027;-83
2021/11/02 03:05:07;;;;;;;6.72;1.65;;;;;;;11.06;62.67;98168.13;6068298;23;20033;-78
2021/11/02 03:07:37;;;;;;;8.32;2.25;;;;;;;11.04;62.51;98162.16;6066477;23;20098;-79
2021/11/02 03:10:09;;;;;;;6.38;2.38;;;;;;;11.03;62.68;98164.94;6066964;23;20023;-80
2021/11/02 03:12:42;;;;;;;5.40;2.13;;;;;;;10.98;62.61;98165.31;6067638;23;20102;-79
2021/11/02 03:18:01;;;;;;;4.40;1.85;;;;;;;10.97;62.45;98163.63;6068568;23;20002;-79
2021/11/02 03:43:31;;;;;;;4.88;1.65;;;;;;;10.93;62.66;98168.34;6067088;23;20513;-82
2021/11/02 05:49:33;;;;;;;9.05;3.90;;;;;;;9.59;65.76;98172.94;6010101;23;20080;-88
2021/11/02 05:57:21;;;;;;;7.25;4.03;;;;;;;9.57;66.06;98180.13;6011297;23;20034;-86
2021/11/02 05:59:54;;;;;;;11.48;4.55;;;;;;;9.56;66.16;98173.16;6010415;23;20035;-84
2021/11/02 06:10:19;;;;;;;7.60;4.60;;;;;;;9.50;66.28;98175.31;6009886;23;20027;-86
2021/11/02 06:29:30;;;;;;;8.52;4.50;;;;;;;9.36;66.55;98168.53;6038102;23;20023;-87
2021/11/02 06:32:11;;;;;;;11.60;5.30;;;;;;;9.33;66.26;98174.03;6037504;23;20026;-85
2021/11/02 06:39:52;;;;;;;10.75;4.00;;;;;;;9.31;66.52;98180.34;6037687;23;20027;-86
2021/11/02 06:51:14;;;;;;;8.23;4.55;;;;;;;9.26;67.03;98183.31;6038171;23;20031;-85
2021/11/02 07:19:45;;;;;;;10.68;4.85;;;;;;;9.20;67.03;98210.88;6040101;23;20027;-86
2021/11/02 08:47:18;;;;;;;8.25;2.75;;;;;;;10.21;67.70;98219.78;6039130;23;20027;-83
2021/11/02 08:49:48;;;;;;;6.32;2.80;;;;;;;10.25;67.77;98215.97;6037297;23;20023;-82
2021/11/02 08:52:17;;;;;;;5.35;3.08;;;;;;;10.29;67.65;98209.50;6014157;23;20031;-86
2021/11/02 08:54:48;;;;;;;5.93;2.92;;;;;;;10.33;67.73;98216.19;6038108;23;20037;-83
2021/11/02 08:57:16;;;;;;;6.68;2.92;;;;;;;10.39;67.78;98210.41;6039006;23;20027;-84
2021/11/02 08:59:44;;;;;;;8.48;2.63;;;;;;;10.45;67.82;98206.47;6037437;23;20103;-84
2021/11/02 09:02:12;;;;;;;4.03;2.40;;;;;;;10.51;67.71;98207.78;6036989;23;20020;-87
2021/11/02 09:04:45;;;;;;;5.88;3.22;;;;;;;10.55;67.59;98212.66;6039229;23;20038;-83
2021/11/02 09:07:19;;;;;;;4.38;2.60;;;;;;;10.61;67.30;98205.22;6039034;23;20082;-85
2021/11/02 09:09:50;;;;;;;5.13;2.40;;;;;;;10.67;67.09;98208.19;6037509;23;20110;-85
2021/11/02 09:12:17;;;;;;;6.82;2.83;;;;;;;10.73;67.28;98209.47;6038948;23;20078;-84
2021/11/02 09:14:45;;;;;;;7.10;2.90;;;;;;;10.78;67.29;98204.69;6013747;23;20043;-85
2021/11/02 09:17:14;;;;;;;5.30;2.60;;;;;;;10.82;67.15;98200.81;6039268;23;20670;-82
2021/11/02 09:19:41;;;;;;;7.70;2.50;;;;;;;10.88;67.14;98211.81;6013359;23;20034;-85
2021/11/02 09:22:10;;;;;;;6.47;2.45;;;;;;;10.93;66.92;98209.63;6036979;23;20015;-84
2021/11/02 09:24:42;;;;;;;5.65;2.30;;;;;;;10.99;66.99;98209.09;6037308;23;20030;-86
2021/11/02 09:27:15;;;;;;;6.05;2.60;;;;;;;11.02;66.45;98206.19;6013806;23;20114;-81
2021/11/02 09:29:42;;;;;;;6.13;2.38;;;;;;;11.09;66.84;98206.53;6038562;23;20034;-84
2021/11/02 09:32:09;;;;;;;5.13;2.47;;;;;;;11.15;66.76;98202.53;6039071;23;20091;-85
2021/11/02 09:34:36;;;;;;;7.35;2.45;;;;;;;11.19;66.66;98201.31;6036840;23;20546;-85
2021/11/02 09:37:08;;;;;;;4.80;2.47;;;;;;;11.23;66.40;98209.78;6038492;23;20511;-84
2021/11/02 09:39:41;;;;;;;5.43;2.25;;;;;;;11.27;66.09;98205.94;6038218;23;20027;-86
2021/11/02 09:42:26;;;;;;;4.55;2.10;;;;;;;11.29;66.05;98215.38;6036987;23;20035;-85
2021/11/02 09:45:18;;;;;;;5.03;2.88;;;;;;;11.34;65.71;98213.16;6038610;23;20079;-85
2021/11/02 09:47:56;;;;;;;7.32;2.65;;;;;;;11.37;65.45;98208.63;6038779;23;20340;-84
2021/11/02 09:50:29;;;;;;;5.55;2.63;;;;;;;11.39;65.07;98219.84;6038629;23;20027;-84
2021/11/02 09:53:01;;;;;;;6.68;2.67;;;;;;;11.41;65.77;98215.28;6037339;23;20411;-84
2021/11/02 09:56:05;;;;;;;8.55;2.63;;;;;;;11.42;65.19;98219.59;6036912;23;20282;-83
2021/11/02 09:58:54;;;;;;;;;;;;;;;11.49;65.29;98215.47;6038490;23;20027;-86
2021/11/02 10:01:54;;;;;;;3.70;2.20;;;;;;;11.53;65.43;98222.16;6038907;23;20657;-84
2021/11/02 10:04:36;;;;;;;5.10;2.50;;;;;;;11.57;65.24;98220.06;6038180;23;20099;-82
2021/11/02 10:07:26;;;;;;;4.53;2.58;;;;;;;11.59;65.31;98208.44;6013522;23;20355;-85
2021/11/02 10:10:01;;;;;;;7.10;2.85;;;;;;;11.68;65.68;98211.25;6037958;23;20050;-86
2021/11/02 10:13:02;;;;;;;5.30;3.10;;;;;;;11.73;65.54;98211.66;6013635;23;20416;-86
2021/11/02 10:15:37;;;;;;;5.50;2.70;;;;;;;11.83;65.73;98212.56;6038288;23;20038;-86
2021/11/02 10:18:36;;;;;;;5.18;2.97;;;;;;;11.93;65.15;98212.56;6036845;23;20019;-86
2021/11/02 10:21:24;;;;;;;5.95;3.00;;;;;;;12.05;64.81;98215.09;6038519;23;20400;-84
2021/11/02 10:24:06;;;;;;;4.95;2.45;;;;;;;12.17;64.79;98218.47;6036813;23;20084;-86
2021/11/02 10:26:52;;;;;;;4.82;2.50;;;;;;;12.26;64.38;98217.66;6036916;23;20033;-88
2021/11/02 10:29:49;;;;;;;6.75;2.65;;;;;;;12.36;64.44;98212.41;6037958;23;20027;-85
2021/11/02 10:32:17;;;;;;;3.92;2.13;;;;;;;12.49;65.39;98220.88;6038375;23;20019;-85
2021/11/02 10:34:58;;;;;;;4.40;2.55;;;;;;;12.55;63.73;98216.00;6038311;23;20487;-86
2021/11/02 10:37:51;;;;;;;3.55;2.15;;;;;;;12.64;64.31;98225.78;6016908;23;20086;-87
2021/11/02 10:40:22;;;;;;;3.92;2.28;;;;;;;12.70;63.98;98219.06;6036292;23;20027;-87
2021/11/02 10:43:07;;;;;;;2.67;2.20;;;;;;;12.73;63.79;98218.81;6036419;23;20023;-87
2021/11/02 10:45:36;;;;;;;4.60;2.40;;;;;;;12.85;64.47;98216.84;6037163;23;20487;-87
2021/11/02 10:48:11;;;;;;;5.75;2.47;;;;;;;12.89;63.52;98224.38;6013018;23;20019;-87
2021/11/02 10:50:47;;;;;;;6.03;2.30;;;;;;;13.01;64.12;98213.66;6036104;23;20392;-88
2021/11/02 10:53:32;;;;;;;4.15;1.92;;;;;;;13.16;64.16;98225.44;6012957;23;20037;-84
2021/11/02 10:56:50;;;;;;;6.28;2.28;;;;;;;13.43;64.54;98212.44;6016970;23;20031;-87
2021/11/02 10:59:17;;;;;;;3.30;1.88;;;;;;;13.73;65.79;98215.84;6036091;23;20019;-84
2021/11/02 11:01:45;;;;;;;6.68;2.00;;;;;;;13.98;65.43;98196.78;6037886;23;20023;-85
2021/11/02 11:04:16;;;;;;;6.22;1.95;;;;;;;14.24;63.98;98211.94;6037599;23;20023;-86
2021/11/02 11:06:45;;;;;;;5.97;2.05;;;;;;;14.50;63.09;98217.31;6037881;23;20050;-87
2021/11/02 11:09:14;;;;;;;4.38;1.67;;;;;;;14.77;63.39;98214.78;6035729;23;20023;-87
2021/11/02 11:11:46;;;;;;;3.65;1.88;;;;;;;15.02;62.28;98217.63;6037459;23;20038;-87
2021/11/02 11:14:15;;;;;;;3.95;1.40;;;;;;;15.31;63.39;98216.47;6036029;23;20030;-84
2021/11/02 11:16:48;;;;;;;3.40;1.83;;;;;;;15.60;63.26;98213.50;6036646;23;20027;-86
2021/11/02 11:19:31;;;;;;;1.95;1.30;;;;;;;15.85;60.40;98213.59;6037480;23;20467;-87
2021/11/02 11:21:59;;;;;;;4.97;2.10;;;;;;;16.10;60.57;98204.91;6037838;23;20354;-86
2021/11/02 11:24:41;;;;;;;4.80;1.60;;;;;;;16.25;58.30;98213.91;6036151;23;20255;-87
2021/11/02 11:27:09;;;;;;;2.92;1.73;;;;;;;16.42;59.55;98208.66;6012331;23;20055;-85
2021/11/02 11:29:47;;;;;;;4.60;1.80;;;;;;;16.46;56.33;98212.63;6036269;23;20038;-83
2021/11/02 11:32:16;;;;;;;5.50;1.80;;;;;;;16.42;55.88;98219.25;6037525;23;20023;-85
2021/11/02 11:34:50;;;;;;;4.82;2.50;;;;;;;16.25;54.49;98219.22;6012964;23;20412;-85
2021/11/02 11:37:27;;;;;;;6.45;2.58;;;;;;;16.05;54.62;98212.53;6036429;23;20027;-87
2021/11/02 11:40:05;;;;;;;6.32;2.47;;;;;;;15.80;55.24;98215.06;6036373;23;20027;-88
2021/11/02 11:42:34;;;;;;;5.03;2.60;;;;;;;15.62;56.30;98216.81;6035634;23;20097;-87
2021/11/02 11:45:14;;;;;;;3.30;2.50;;;;;;;15.39;55.71;98205.91;6035751;23;20478;-87
2021/11/02 11:47:41;;;;;;;4.88;3.10;;;;;;;15.29;57.54;98210.50;6038297;23;20321;-86
2021/11/02 11:50:19;;;;;;;4.50;3.10;;;;;;;15.13;57.02;98209.41;6037175;23;20027;-85
2021/11/02 11:52:55;;;;;;;5.07;2.70;;;;;;;15.11;58.08;98204.25;6012232;23;20026;-86
2021/11/02 11:55:27;;;;;;;3.20;2.50;;;;;;;15.13;58.71;98198.78;6037327;23;20086;-85
2021/11/02 11:58:11;;;;;;;5.88;3.30;;;;;;;15.26;58.38;98200.19;6038208;23;20038;-87
2021/11/02 12:00:44;;;;;;;6.25;3.13;;;;;;;15.47;59.24;98197.16;6014790;23;20035;-84
2021/11/02 12:03:36;;;;;;;4.78;2.95;;;;;;;15.70;57.61;98196.63;6040046;23;20376;-82
2021/11/02 12:06:18;;;;;;;5.65;3.47;;;;;;;16.00;57.68;98187.31;6014891;23;20368;-90
2021/11/02 12:08:50;;;;;;;4.38;3.08;;;;;;;16.27;56.62;98192.50;6015089;23;20023;-87
2021/11/02 12:11:22;;;;;;;2.80;2.60;;;;;;;16.45;56.08;98189.69;6037928;23;20279;-87
2021/11/02 12:13:54;;;;;;;7.00;3.03;;;;;;;16.62;56.40;98187.06;6038257;23;20024;-88
2021/11/02 12:16:34;;;;;;;3.42;2.75;;;;;;;16.77;56.45;98177.44;6038341;23;20029;-89
2021/11/02 12:19:11;;;;;;;4.22;2.42;;;;;;;16.96;56.14;98187.91;6016075;23;20027;-89
2021/11/02 12:21:39;;;;;;;7.53;2.90;;;;;;;17.21;58.07;98186.06;6013751;23;20355;-89
2021/11/02 12:24:16;;;;;;;4.32;2.10;;;;;;;17.45;55.58;98179.00;6015547;23;20467;-88
2021/11/02 12:26:48;;;;;;;2.67;2.30;;;;;;;17.67;55.07;98181.91;6014111;23;20401;-89
2021/11/02 12:29:27;;;;;;;5.05;2.58;;;;;;;17.87;54.44;98177.00;6037637;23;20472;-91
2021/11/02 12:31:57;;;;;;;4.80;2.65;;;;;;;18.03;54.46;98186.75;6014082;23;20026;-90
2021/11/02 12:34:30;;;;;;;4.45;1.90;;;;;;;18.12;54.70;98178.75;6038551;23;20100;-85
2021/11/02 12:36:59;;;;;;;2.58;1.63;;;;;;;18.18;54.64;98178.03;6039125;23;20090;-84
2021/11/02 12:39:29;;;;;;;4.70;2.20;;;;;;;18.21;54.12;98186.50;6039161;23;20408;-83
2021/11/02 12:41:59;;;;;;;3.92;2.10;;;;;;;18.18;51.76;98186.88;6040123;23;20267;-86
2021/11/02 12:44:30;;;;;;;3.53;2.17;;;;;;;18.07;51.99;98188.06;6014476;23;20015;-91
2021/11/02 12:46:59;;;;;;;2.88;1.75;;;;;;;17.91;52.15;98186.31;6039841;23;20027;-89
2021/11/02 12:49:46;;;;;;;2.67;1.98;;;;;;;17.71;52.14;98188.56;6037718;23;20027;-89
2021/11/02 12:52:15;;;;;;;3.15;1.70;;;;;;;17.46;52.29;98180.69;6014944;23;20452;-87
2021/11/02 12:54:56;;;;;;;4.78;1.70;;;;;;;17.24;51.53;98187.56;6015376;23;20050;-84
2021/11/02 12:57:33;;;;;;;3.03;1.80;;;;;;;16.99;51.37;98191.06;6038151;23;20031;-88
2021/11/02 13:00:01;;;;;;;3.13;1.70;;;;;;;16.86;53.04;98185.41;6039366;23;20027;-87
2021/11/02 13:02:36;;;;;;;6.57;1.73;;;;;;;16.64;52.20;98185.91;6039577;23;20031;-89
2021/11/02 13:05:22;;;;;;;4.80;1.65;;;;;;;16.44;49.96;98182.72;6039048;23;20031;-85
2021/11/02 13:08:08;;;;;;;3.72;1.70;;;;;;;16.25;51.82;98183.88;6037122;23;20347;-85
2021/11/02 13:10:36;;;;;;;3.08;1.65;;;;;;;16.10;52.90;98186.31;6037315;23;20023;-88
2021/11/02 13:13:11;;;;;;;4.95;1.88;;;;;;;15.86;52.69;98186.06;6039007;23;20019;-87
2021/11/02 13:16:07;;;;;;;5.05;1.95;;;;;;;15.64;53.48;98179.53;6012585;23;20031;-88
2021/11/02 13:18:38;;;;;;;2.55;1.70;;;;;;;15.55;54.06;98177.84;6009411;23;20034;-88
2021/11/02 13:21:19;;;;;;;2.42;1.77;;;;;;;15.39;53.59;98184.69;6014275;23;20098;-86
2021/11/02 13:23:54;;;;;;;4.32;1.83;;;;;;;15.32;54.35;98183.66;6035427;23;20030;-87
2021/11/02 13:26:26;;;;;;;3.08;1.80;;;;;;;15.20;54.85;98185.75;6012956;23;20023;-87
2021/11/02 13:29:07;;;;;;;3.58;1.77;;;;;;;15.12;55.06;98194.50;6038911;23;20038;-87
2021/11/02 13:31:37;;;;;;;3.00;1.70;;;;;;;15.02;55.14;98189.28;6014154;23;20047;-88
2021/11/02 13:34:13;;;;;;;5.40;1.73;;;;;;;14.96;55.11;98193.38;6037482;23;20541;-84
2021/11/02 13:36:40;;;;;;;3.65;1.88;;;;;;;14.90;55.02;98186.06;6038840;23;20127;-83
2021/11/02 13:39:14;;;;;;;4.40;1.85;;;;;;;14.80;54.94;98188.78;6039169;23;20027;-88
2021/11/02 13:41:50;;;;;;;3.88;1.77;;;;;;;14.70;54.77;98185.38;6014023;23;20023;-89
2021/11/02 13:44:19;;;;;;;4.25;1.90;;;;;;;14.65;55.54;98188.47;6038521;23;20030;-88
2021/11/02 13:46:51;;;;;;;3.63;2.00;;;;;;;14.57;55.13;98188.41;6014128;23;20042;-86
2021/11/02 13:49:20;;;;;;;2.63;1.85;;;;;;;14.52;55.72;98190.69;6039049;23;20046;-88
2021/11/02 13:51:51;;;;;;;3.63;2.03;;;;;;;14.44;55.50;98181.66;6038957;23;20035;-87
2021/11/02 13:54:19;;;;;;;3.50;2.08;;;;;;;14.40;56.08;98188.28;6037754;23;20019;-89
2021/11/02 13:56:46;;;;;;;5.90;2.10;;;;;;;14.35;56.46;98187.88;6013791;23;20031;-87
2021/11/02 13:59:14;;;;;;;2.58;1.63;;;;;;;14.32;56.66;98190.84;6039743;23;20149;-88
2021/11/02 14:01:58;;;;;;;2.53;1.95;;;;;;;14.25;56.41;98192.41;6036250;23;20027;-89
2021/11/02 14:04:27;;;;;;;8.88;1.90;;;;;;;14.28;56.92;98190.28;6037616;23;20436;-88
2021/11/02 14:07:01;;;;;;;3.72;2.10;;;;;;;14.26;56.60;98188.78;6013508;23;20030;-81
2021/11/02 14:09:32;;;;;;;10.07;2.28;;;;;;;14.24;56.85;98188.94;6013819;23;20030;-87
2021/11/02 14:12:00;;;;;;;5.78;2.10;;;;;;;14.24;57.03;98185.47;6038545;23;20384;-88
2021/11/02 14:14:34;;;;;;;4.25;2.03;;;;;;;14.19;56.47;98185.91;6036884;23;20023;-87
2021/11/02 14:17:20;;;;;;;4.10;2.10;;;;;;;14.17;56.58;98186.06;6038779;23;20459;-89
2021/11/02 14:19:51;;;;;;;6.13;2.65;;;;;;;14.19;56.93;98184.09;6012962;23;20106;-82
2021/11/02 14:22:41;;;;;;;3.05;2.08;;;;;;;14.19;56.91;98186.75;6014131;23;20043;-88
2021/11/02 14:25:19;;;;;;;5.60;2.00;;;;;;;14.25;57.11;98189.78;6036640;23;20083;-88
2021/11/02 14:27:51;;;;;;;4.70;2.20;;;;;;;14.30;57.51;98182.22;6016841;23;20058;-84
2021/11/02 14:30:31;;;;;;;5.15;2.30;;;;;;;14.33;57.19;98192.50;6013122;23;20031;-88
2021/11/02 14:33:19;;;;;;;3.92;1.95;;;;;;;14.39;57.05;98188.44;6016571;23;20025;-88
2021/11/02 14:35:51;;;;;;;6.55;2.25;;;;;;;14.42;57.12;98185.47;6036605;23;20027;-88
2021/11/02 14:38:19;;;;;;;4.57;2.28;;;;;;;14.45;57.41;98188.66;6036309;23;20031;-87
2021/11/02 14:41:29;;;;;;;6.97;2.20;;;;;;;14.49;57.00;98183.03;6016405;23;20027;-88
2021/11/02 14:44:26;;;;;;;4.63;2.00;;;;;;;14.53;56.92;98179.94;6013478;23;20028;-88
2021/11/02 14:47:02;;;;;;;4.32;1.92;;;;;;;14.59;56.48;98178.50;6001946;23;20075;-88
2021/11/02 14:49:32;;;;;;;4.03;2.08;;;;;;;14.65;57.27;98183.19;6012162;23;20030;-88
2021/11/02 14:51:59;;;;;;;4.15;2.28;;;;;;;14.67;57.08;98185.69;6038052;23;20023;-88
2021/11/02 14:54:29;;;;;;;5.18;2.05;;;;;;;14.69;57.12;98189.03;6036726;23;20396;-88
2021/11/02 14:57:20;;;;;;;2.53;2.10;;;;;;;14.70;56.42;98182.72;6036409;23;20056;-88
2021/11/02 15:00:01;;;;;;;4.20;1.90;;;;;;;14.70;56.43;98183.56;6034472;23;20023;-88
2021/11/02 15:02:39;;;;;;;3.70;1.90;;;;;;;14.72;56.61;98186.06;6011876;23;20023;-88
2021/11/02 15:05:18;;;;;;;3.03;1.63;;;;;;;14.71;56.93;98184.41;6011822;23;20027;-88
2021/11/02 15:07:47;;;;;;;3.45;1.80;;;;;;;14.73;56.82;98182.44;6036609;23;20102;-88
2021/11/02 15:10:19;;;;;;;4.82;2.05;;;;;;;14.71;56.70;98177.28;6035661;23;20344;-88
2021/11/02 15:12:51;;;;;;;2.85;1.83;;;;;;;14.72;56.90;98178.09;6037010;23;20102;-88
2021/11/02 15:15:28;;;;;;;6.03;1.83;;;;;;;14.69;56.34;98178.44;6038323;23;20019;-88
2021/11/02 15:18:06;;;;;;;3.65;1.80;;;;;;;14.67;56.25;98169.78;6013135;23;20055;-89
2021/11/02 15:20:33;;;;;;;3.03;1.65;;;;;;;14.68;57.00;98176.75;6036664;23;20019;-88
2021/11/02 15:23:00;;;;;;;5.63;1.90;;;;;;;14.64;56.77;98181.53;6035953;23;20050;-87
2021/11/02 15:25:27;;;;;;;2.63;1.45;;;;;;;14.60;56.76;98174.88;6036973;23;20023;-88
2021/11/02 15:27:59;;;;;;;1.98;1.48;;;;;;;14.53;56.30;98174.66;6036148;23;20027;-88
2021/11/02 15:30:26;;;;;;;4.28;1.60;;;;;;;14.52;56.87;98180.09;6037412;23;20023;-88
2021/11/02 15:32:53;;;;;;;2.08;1.40;;;;;;;14.44;56.88;98176.38;6037761;23;20051;-88
2021/11/02 15:35:23;;;;;;;3.03;2.03;;;;;;;14.39;56.59;98181.31;6012922;23;20027;-88
2021/11/02 15:37:56;;;;;;;2.42;1.58;;;;;;;14.33;56.50;98179.28;6037298;23;20090;-89
2021/11/02 15:40:37;;;;;;;3.50;2.22;;;;;;;14.29;56.44;98177.91;6036927;23;20027;-87
2021/11/02 15:43:06;;;;;;;4.18;2.20;;;;;;;14.25;56.59;98181.84;6036616;23;20082;-88
2021/11/02 15:45:36;;;;;;;4.78;2.08;;;;;;;14.20;56.81;98188.41;6036699;23;20027;-88
2021/11/02 15:48:10;;;;;;;3.00;1.80;;;;;;;14.16;56.95;98183.56;6036742;23;20057;-88
2021/11/02 15:50:48;;;;;;;4.72;1.80;;;;;;;14.11;56.66;98185.81;6038097;23;20337;-87
2021/11/02 15:53:21;;;;;;;4.72;2.20;;;;;;;14.07;56.84;98185.28;6037439;23;20348;-88
2021/11/02 15:55:59;;;;;;;3.33;1.40;;;;;;;14.01;56.78;98189.38;6036593;23;20031;-88
2021/11/02 15:58:33;;;;;;;2.30;1.30;;;;;;;13.97;56.83;98190.63;6036027;23;20503;-88
2021/11/02 16:01:04;;;;;;;3.25;1.67;;;;;;;13.96;57.37;98188.13;6014058;23;20358;-88
2021/11/02 16:03:35;;;;;;;3.40;1.45;;;;;;;13.91;57.34;98180.66;6038114;23;20026;-88
2021/11/02 16:06:04;;;;;;;4.88;2.00;;;;;;;13.85;57.18;98182.09;6036543;23;20047;-88
2021/11/02 16:08:31;;;;;;;3.67;1.80;;;;;;;13.83;57.33;98177.94;6012448;23;20332;-87
2021/11/02 16:11:07;;;;;;;2.95;1.60;;;;;;;13.74;56.96;98174.34;6035508;23;20028;-89
2021/11/02 16:17:22;;;;;;;3.17;1.75;;;;;;;13.62;57.21;98177.19;6037618;23;20022;-88
2021/11/02 16:19:50;;;;;;;3.53;1.60;;;;;;;13.55;57.47;98176.09;6035165;23;20030;-88
2021/11/02 16:22:19;;;;;;;2.95;1.70;;;;;;;13.46;57.44;98180.41;6009636;23;20451;-88
2021/11/02 16:24:59;;;;;;;3.33;1.58;;;;;;;13.39;57.51;98176.69;6033236;23;20019;-88
2021/11/02 16:27:25;;;;;;;2.97;1.77;;;;;;;13.31;57.65;98179.22;6010784;23;20027;-88
2021/11/02 16:29:52;;;;;;;3.92;1.58;;;;;;;13.24;57.77;98181.63;6035359;23;20272;-88
2021/11/02 16:32:22;;;;;;;2.92;1.80;;;;;;;13.17;57.83;98178.72;6011970;23;20025;-88
2021/11/02 16:34:48;;;;;;;2.55;1.70;;;;;;;13.13;58.04;98186.06;6036629;23;20030;-88
2021/11/02 16:37:46;;;;;;;2.15;1.60;;;;;;;13.01;58.04;98185.41;6036251;23;20039;-88
2021/11/02 16:40:22;;;;;;;3.47;1.60;;;;;;;13.03;57.99;98190.56;6035288;23;20346;-88
2021/11/02 16:43:01;;;;;;;3.58;1.55;;;;;;;12.98;58.40;98187.50;6038540;23;20340;-88
2021/11/02 16:45:31;;;;;;;6.97;1.70;;;;;;;12.99;58.62;98187.38;6013987;23;20023;-88
2021/11/02 16:48:06;;;;;;;1.73;1.60;;;;;;;12.98;58.88;98185.69;6037410;23;20030;-88
2021/11/02 16:50:37;;;;;;;3.08;1.70;;;;;;;12.97;58.90;98188.50;6037501;23;20027;-89
2021/11/02 16:53:16;;;;;;;2.45;1.60;;;;;;;12.97;59.00;98188.50;6013361;23;20053;-88
2021/11/02 16:55:50;;;;;;;5.40;1.67;;;;;;;12.99;58.97;98189.19;6014835;23;20359;-88
2021/11/02 16:58:22;;;;;;;2.80;1.73;;;;;;;12.98;59.08;98190.16;6038860;23;20392;-88
2021/11/02 17:01:10;;;;;;;4.38;1.73;;;;;;;12.95;59.18;98198.34;6039114;23;20027;-88
2021/11/02 17:03:37;;;;;;;4.63;1.58;;;;;;;12.99;59.26;98197.94;6038685;23;20047;-88
2021/11/02 17:06:24;;;;;;;3.83;1.60;;;;;;;12.98;59.39;98200.72;6014019;23;20031;-88
2021/11/02 17:09:08;;;;;;;2.63;1.60;;;;;;;12.97;59.15;98204.34;6037106;23;20091;-87
2021/11/02 17:11:51;;;;;;;2.50;1.75;;;;;;;12.97;59.44;98207.81;6036938;23;20351;-88
2021/11/02 17:14:21;;;;;;;2.95;1.80;;;;;;;12.99;59.27;98202.38;6037097;23;20015;-88
2021/11/02 17:25:29;;;;;;;;;;;;;;;;;;;;;
2021/11/02 17:28:13;;;;;;;6.32;2.58;;;;;;;12.95;59.35;98196.56;5961904;23;20032;-88